Time;durP1;ratioP1;P1;durP2;ratioP2;P2;SDS_P1;SDS_P2;PMS_P1;PMS_P2;Temp;Humidity;BMP_temperature;BMP_pressure;BME280_temperature;BME280_humidity;BME280_pressure;Samples;Min_cycle;Max_cycle;Signal;HPM_P1;HPM_P2
2024/04/13 00:00:30;;;;;;;3.42;2.33;;;11.20;99.90;;;10.59;100.00;102362.88;4487366;26;19999;-58
2024/04/13 00:02:32;;;;;;;4.07;2.47;;;11.20;99.90;;;10.52;100.00;102351.94;4487321;26;20434;-57
2024/04/13 00:04:33;;;;;;;4.88;3.05;;;11.10;99.90;;;10.48;100.00;102367.16;4467061;26;20004;-57
2024/04/13 00:06:34;;;;;;;5.75;3.08;;;11.10;99.90;;;10.44;100.00;102356.97;4457708;26;20539;-58
2024/04/13 00:08:36;;;;;;;9.18;3.30;;;11.10;99.90;;;10.42;100.00;102362.34;4470218;26;20007;-58
2024/04/13 00:10:37;;;;;;;5.35;3.70;;;11.10;99.90;;;10.41;100.00;102365.97;4466393;26;20000;-58
2024/04/13 00:12:37;;;;;;;6.53;3.60;;;11.00;99.90;;;10.37;100.00;102363.66;4457396;26;20000;-58
2024/04/13 00:14:38;;;;;;;6.93;3.17;;;11.00;99.90;;;10.34;100.00;102372.66;4457345;26;20001;-57
2024/04/13 00:16:39;;;;;;;6.40;3.28;;;10.90;99.90;;;10.31;100.00;102366.75;4457399;26;20035;-58
2024/04/13 00:18:41;;;;;;;7.05;3.05;;;10.90;99.90;;;10.29;100.00;102368.66;4455385;26;20055;-58
2024/04/13 00:20:41;;;;;;;5.35;3.30;;;10.90;99.90;;;10.27;100.00;102367.94;4457373;26;20000;-56
2024/04/13 00:22:42;;;;;;;5.18;2.75;;;10.90;99.90;;;10.19;100.00;102362.38;4457285;26;20031;-58
2024/04/13 00:24:44;;;;;;;4.90;2.70;;;10.90;99.90;;;10.20;100.00;102366.72;4468953;26;19999;-58
2024/04/13 00:26:45;;;;;;;7.15;3.40;;;10.80;99.90;;;10.16;100.00;102365.25;4457301;26;20015;-58
2024/04/13 00:28:46;;;;;;;7.55;3.20;;;10.80;99.90;;;10.13;100.00;102371.59;4457357;26;20000;-56
2024/04/13 00:30:47;;;;;;;6.68;3.38;;;10.70;99.90;;;10.08;100.00;102364.94;4457562;26;20036;-58
2024/04/13 00:32:48;;;;;;;8.23;3.35;;;10.70;99.90;;;10.08;100.00;102370.22;4457422;26;20040;-57
2024/04/13 00:34:49;;;;;;;8.55;3.15;;;10.70;99.90;;;10.05;100.00;102363.38;4459237;26;20074;-58
2024/04/13 00:36:50;;;;;;;5.90;3.30;;;10.70;99.90;;;10.07;100.00;102371.16;4460274;26;20032;-58
2024/04/13 00:38:51;;;;;;;4.75;3.45;;;10.60;99.90;;;10.06;100.00;102374.78;4459947;26;20019;-57
2024/04/13 00:40:52;;;;;;;8.30;3.00;;;10.70;99.90;;;10.03;100.00;102363.47;4460114;26;20439;-58
2024/04/13 00:42:52;;;;;;;7.97;3.60;;;10.60;99.90;;;10.00;100.00;102360.25;4459931;26;20075;-57
2024/04/13 00:45:03;;;;;;;9.07;3.15;;;10.60;99.90;;;10.01;100.00;102367.19;4479720;26;20479;-58
2024/04/13 00:47:09;;;;;;;6.28;3.38;;;10.60;99.90;;;10.02;100.00;102359.19;4459865;26;20019;-57
2024/04/13 00:49:13;;;;;;;4.45;3.13;;;10.60;99.90;;;10.01;100.00;102349.59;4459700;26;20005;-58
2024/04/13 00:51:17;;;;;;;4.88;3.00;;;10.60;99.90;;;10.00;100.00;102349.72;4458484;26;20004;-58
2024/04/13 00:53:19;;;;;;;4.07;2.72;;;10.60;99.90;;;9.96;100.00;102341.19;4460001;26;20000;-58
2024/04/13 00:55:20;;;;;;;3.92;2.58;;;10.60;99.90;;;9.94;100.00;102343.09;4468364;26;20331;-57
2024/04/13 00:57:26;;;;;;;7.63;3.08;;;10.60;99.90;;;9.96;100.00;102340.34;4460045;26;20004;-58
2024/04/13 00:59:27;;;;;;;5.07;3.13;;;10.50;99.90;;;9.93;100.00;102346.69;4483393;26;20003;-56
2024/04/13 01:01:29;;;;;;;9.15;3.67;;;10.60;99.90;;;9.91;100.00;102343.31;4489200;26;20463;-58
2024/04/13 01:03:30;;;;;;;6.20;3.70;;;10.60;99.90;;;9.92;100.00;102345.00;4484959;26;20015;-57
2024/04/13 01:05:32;;;;;;;10.63;4.43;;;10.50;99.90;;;9.95;100.00;102339.50;4457987;26;20000;-58
2024/04/13 01:07:33;;;;;;;4.63;3.40;;;10.50;99.90;;;9.93;100.00;102340.56;4459765;26;20004;-58
2024/04/13 01:09:37;;;;;;;6.85;3.55;;;10.50;99.90;;;9.91;100.00;102334.56;4459647;26;20015;-58
2024/04/13 01:11:38;;;;;;;4.40;2.97;;;10.50;99.90;;;9.89;100.00;102336.47;4459629;26;20016;-58
2024/04/13 01:13:40;;;;;;;4.13;2.95;;;10.50;99.90;;;9.84;100.00;102338.59;4457848;26;20122;-58
2024/04/13 01:15:42;;;;;;;5.80;3.45;;;10.50;99.90;;;9.80;100.00;102343.25;4459838;26;20040;-58
2024/04/13 01:17:43;;;;;;;4.85;3.25;;;10.40;99.90;;;9.78;100.00;102336.41;4459775;26;20004;-58
2024/04/13 01:19:44;;;;;;;6.75;4.00;;;10.40;99.90;;;9.76;100.00;102338.34;4459216;26;20369;-58
2024/04/13 01:21:46;;;;;;;5.68;3.45;;;10.40;99.90;;;9.73;100.00;102342.03;4467810;26;20026;-58
2024/04/13 01:24:04;;;;;;;5.63;3.60;;;10.40;99.90;;;9.73;100.00;102343.81;4466276;26;20011;-58
2024/04/13 01:26:07;;;;;;;6.30;3.58;;;10.30;99.90;;;9.71;100.00;102343.91;4468332;26;20004;-58
2024/04/13 01:28:10;;;;;;;8.23;3.95;;;10.30;99.90;;;9.66;100.00;102340.78;4489087;26;20389;-58
2024/04/13 01:30:12;;;;;;;6.50;3.83;;;10.30;99.90;;;9.60;100.00;102330.69;4489076;26;20003;-58
2024/04/13 01:32:13;;;;;;;6.22;4.38;;;10.30;99.90;;;9.61;100.00;102331.53;4489006;26;20007;-57
2024/04/13 01:34:14;;;;;;;8.15;5.10;;;10.20;99.90;;;9.59;100.00;102331.63;4488660;26;20000;-58
2024/04/13 01:36:15;;;;;;;7.97;4.03;;;10.20;99.90;;;9.59;100.00;102328.19;4489142;26;20320;-58
2024/04/13 01:38:15;;;;;;;5.00;4.07;;;10.20;99.90;;;9.60;100.00;102330.69;4488693;26;20019;-57
2024/04/13 01:40:16;;;;;;;7.50;4.10;;;10.20;99.90;;;9.62;100.00;102336.69;4488657;26;20015;-58
2024/04/13 01:42:17;;;;;;;10.55;4.45;;;10.20;99.90;;;9.61;100.00;102332.38;4488604;26;20040;-58
2024/04/13 01:44:18;;;;;;;6.68;4.40;;;10.20;99.90;;;9.60;100.00;102333.31;4488570;26;20028;-58
2024/04/13 01:46:19;;;;;;;7.82;4.47;;;10.20;99.90;;;9.59;100.00;102329.00;4487308;26;20003;-58
2024/04/13 01:48:20;;;;;;;4.63;3.83;;;10.20;99.90;;;9.55;100.00;102324.91;4488740;26;20482;-58
2024/04/13 01:50:21;;;;;;;6.60;3.85;;;10.20;99.90;;;9.54;100.00;102320.59;4488650;26;19999;-58
2024/04/13 01:52:22;;;;;;;5.95;4.18;;;10.20;99.90;;;9.51;100.00;102312.06;4488590;26;20089;-58
2024/04/13 01:54:23;;;;;;;7.07;4.38;;;10.20;99.90;;;9.52;100.00;102311.13;4483557;26;20004;-58
2024/04/13 01:56:24;;;;;;;9.02;4.47;;;10.20;99.90;;;9.53;100.00;102311.00;4459081;26;20000;-57
2024/04/13 01:58:25;;;;;;;7.13;4.18;;;10.10;99.90;;;9.55;100.00;102303.84;4467355;26;20014;-58
2024/04/13 02:00:25;;;;;;;7.80;4.50;;;10.20;99.90;;;9.56;100.00;102310.78;4477875;26;20019;-58
2024/04/13 02:02:26;;;;;;;7.63;5.55;;;10.20;99.90;;;9.60;100.00;102312.25;4459331;26;20000;-57
2024/04/13 02:04:27;;;;;;;9.52;5.80;;;10.20;99.90;;;9.57;100.00;102307.19;4476012;26;20098;-58
2024/04/13 02:06:28;;;;;;;11.00;6.43;;;10.20;99.90;;;9.57;100.00;102303.72;4459132;26;20004;-58
2024/04/13 02:08:29;;;;;;;6.60;5.15;;;10.20;99.90;;;9.57;100.00;102309.84;4459097;26;20005;-58
2024/04/13 02:10:31;;;;;;;8.38;5.90;;;10.20;99.90;;;9.57;100.00;102304.56;4459023;26;20015;-56
2024/04/13 02:12:32;;;;;;;9.32;5.15;;;10.20;99.90;;;9.57;100.00;102309.84;4458992;26;20481;-57
2024/04/13 02:14:33;;;;;;;5.50;4.47;;;10.20;99.90;;;9.57;100.00;102315.09;4458978;26;20004;-58
2024/04/13 02:16:34;;;;;;;7.28;5.00;;;10.20;99.90;;;9.56;100.00;102302.88;4459014;26;20008;-57
2024/04/13 02:18:37;;;;;;;8.30;5.18;;;10.20;99.90;;;9.56;100.00;102307.31;4458758;26;20000;-58
2024/04/13 02:20:37;;;;;;;9.07;6.28;;;10.20;99.90;;;9.57;100.00;102301.09;4459058;26;20019;-58
2024/04/13 02:22:38;;;;;;;9.10;6.72;;;10.20;99.90;;;9.55;100.00;102300.38;4458942;26;20008;-57
2024/04/13 02:24:39;;;;;;;11.75;9.10;;;10.20;99.90;;;9.53;100.00;102295.19;4458880;26;20000;-58
2024/04/13 02:26:40;;;;;;;14.98;9.57;;;10.10;99.90;;;9.50;100.00;102297.22;4459020;26;20012;-58
2024/04/13 02:28:41;;;;;;;11.35;9.20;;;10.10;99.90;;;9.51;100.00;102296.25;4458965;26;20012;-58
2024/04/13 02:30:42;;;;;;;10.57;8.00;;;10.10;99.90;;;9.48;100.00;102296.47;4458934;26;20019;-58
2024/04/13 02:32:43;;;;;;;10.18;6.85;;;10.10;99.90;;;9.47;100.00;102286.91;4458953;26;20015;-55
2024/04/13 02:34:44;;;;;;;9.10;7.72;;;10.10;99.90;;;9.43;100.00;102279.25;4470567;26;20004;-57
2024/04/13 02:36:46;;;;;;;12.02;8.40;;;10.10;99.90;;;9.41;100.00;102278.50;4465976;26;20028;-57
2024/04/13 02:38:47;;;;;;;12.65;9.05;;;10.00;99.90;;;9.41;100.00;102282.91;4458815;26;20032;-58
2024/04/13 02:40:57;;;;;;;16.05;9.48;;;10.00;99.90;;;9.37;100.00;102271.78;4458522;26;20041;-57
2024/04/13 02:42:58;;;;;;;13.35;8.57;;;10.00;99.90;;;9.38;100.00;102283.13;4458494;26;20000;-58
2024/04/13 02:44:59;;;;;;;12.60;8.60;;;10.00;99.90;;;9.35;100.00;102275.44;4458719;26;20004;-58
2024/04/13 02:47:00;;;;;;;10.88;7.78;;;10.00;99.90;;;9.32;100.00;102284.41;4458686;26;20174;-58
2024/04/13 02:49:01;;;;;;;11.23;7.43;;;10.00;99.90;;;9.32;100.00;102283.56;4456524;26;20050;-57
2024/04/13 02:51:03;;;;;;;11.45;6.43;;;9.90;99.90;;;9.32;100.00;102280.94;4458488;26;20004;-58
2024/04/13 02:53:03;;;;;;;11.23;7.65;;;9.90;99.90;;;9.30;100.00;102282.84;4458562;26;20000;-57
2024/04/13 02:55:05;;;;;;;8.93;7.28;;;9.90;99.90;;;9.30;100.00;102290.75;4469524;26;20360;-58
2024/04/13 02:57:05;;;;;;;11.05;6.90;;;9.90;99.90;;;9.28;100.00;102282.13;4458201;26;20011;-58
2024/04/13 02:59:06;;;;;;;11.90;8.63;;;9.90;99.90;;;9.27;100.00;102275.16;4477043;26;19999;-57
2024/04/13 03:01:07;;;;;;;14.20;9.68;;;9.90;99.90;;;9.25;100.00;102274.44;4487768;26;20015;-57
2024/04/13 03:03:08;;;;;;;15.18;7.97;;;9.90;99.90;;;9.28;100.00;102277.72;4487959;26;20000;-58
2024/04/13 03:05:09;;;;;;;14.80;9.68;;;9.90;99.90;;;9.22;100.00;102278.16;4472002;26;20004;-56
2024/04/13 03:07:10;;;;;;;14.35;8.48;;;9.80;99.90;;;9.21;100.00;102270.34;4458592;26;20027;-58
2024/04/13 03:09:12;;;;;;;10.30;6.20;;;9.80;99.90;;;9.18;100.00;102260.03;4458544;26;20357;-57
2024/04/13 03:11:13;;;;;;;9.63;5.93;;;9.80;99.90;;;9.16;100.00;102270.69;4457996;26;20004;-58
2024/04/13 03:13:14;;;;;;;7.18;4.25;;;9.80;99.90;;;9.12;100.00;102260.47;4458342;26;20152;-57
2024/04/13 03:15:15;;;;;;;9.35;6.97;;;9.70;99.90;;;9.09;100.00;102263.31;4458327;26;20000;-57
2024/04/13 03:17:16;;;;;;;12.57;7.35;;;9.70;99.90;;;9.04;100.00;102257.56;4458413;26;20004;-58
2024/04/13 03:19:17;;;;;;;8.35;6.70;;;9.70;99.90;;;8.99;100.00;102254.41;4457832;26;20032;-58
2024/04/13 03:21:17;;;;;;;8.68;6.00;;;9.70;99.90;;;8.97;100.00;102261.56;4458110;26;20004;-55
2024/04/13 03:23:18;;;;;;;7.45;6.10;;;9.60;99.90;;;8.94;100.00;102257.34;4458337;26;20008;-58
2024/04/13 03:25:19;;;;;;;7.75;6.00;;;9.60;99.90;;;8.89;100.00;102260.31;4458033;26;20033;-58
2024/04/13 03:27:20;;;;;;;7.93;5.30;;;9.60;99.90;;;8.86;100.00;102260.53;4458155;26;20011;-57
2024/04/13 03:29:21;;;;;;;10.40;5.53;;;9.50;99.90;;;8.85;100.00;102252.75;4458014;26;20015;-58
2024/04/13 03:31:22;;;;;;;9.35;5.03;;;9.50;99.90;;;8.85;100.00;102256.22;4458093;26;20000;-58
2024/04/13 03:33:24;;;;;;;8.80;5.05;;;9.50;99.90;;;8.83;100.00;102249.38;4457723;26;20015;-58
2024/04/13 03:35:24;;;;;;;8.50;5.35;;;9.50;99.90;;;8.83;100.00;102249.38;4458216;26;20014;-58
2024/04/13 03:37:26;;;;;;;10.43;4.45;;;9.40;99.90;;;8.81;100.00;102249.47;4473439;26;20018;-57
2024/04/13 03:39:30;;;;;;;9.68;5.40;;;9.40;99.90;;;8.80;100.00;102242.56;4458058;26;20336;-58
2024/04/13 03:41:31;;;;;;;8.85;5.10;;;9.50;99.90;;;8.80;100.00;102242.56;4458076;26;20001;-58
2024/04/13 03:43:36;;;;;;;6.43;4.28;;;9.50;99.90;;;8.81;100.00;102238.94;4457457;26;20024;-56
2024/04/13 03:45:37;;;;;;;7.70;4.43;;;9.40;99.90;;;8.81;100.00;102236.31;4457864;26;20012;-56
2024/04/13 03:47:38;;;;;;;10.25;5.10;;;9.40;99.90;;;8.81;100.00;102238.94;4457986;26;20099;-59
2024/04/13 03:49:39;;;;;;;6.43;4.25;;;9.40;99.90;;;8.79;100.00;102238.22;4457634;26;20023;-58
2024/04/13 03:51:40;;;;;;;6.47;4.28;;;9.40;99.90;;;8.76;100.00;102237.59;4457904;26;20081;-56
2024/04/13 03:53:41;;;;;;;5.90;4.00;;;9.40;99.90;;;8.75;100.00;102236.75;4457931;26;20008;-58
2024/04/13 03:55:42;;;;;;;7.20;4.63;;;9.40;99.90;;;8.75;100.00;102239.38;4465395;26;20015;-58
2024/04/13 03:57:43;;;;;;;7.65;5.10;;;9.40;99.90;;;8.73;100.00;102229.91;4457609;26;20000;-58
2024/04/13 03:59:44;;;;;;;7.53;4.97;;;9.40;99.90;;;8.72;100.00;102223.81;4485523;26;20020;-56
2024/04/13 04:01:45;;;;;;;7.43;4.68;;;9.40;99.90;;;8.75;100.00;102234.13;4486825;26;20443;-58
2024/04/13 04:03:45;;;;;;;7.80;5.13;;;9.40;99.90;;;8.75;100.00;102225.41;4479106;26;20005;-58
2024/04/13 04:05:50;;;;;;;6.82;4.50;;;9.40;99.90;;;8.75;100.00;102225.41;4457527;26;20028;-58
2024/04/13 04:07:51;;;;;;;8.23;4.63;;;9.40;99.90;;;8.75;100.00;102222.78;4457213;26;20011;-57
2024/04/13 04:09:52;;;;;;;6.95;4.95;;;9.40;99.90;;;8.74;100.00;102216.69;4456987;26;20016;-58
2024/04/13 04:11:52;;;;;;;7.55;4.82;;;9.40;99.90;;;8.72;100.00;102215.91;4457531;26;20372;-56
2024/04/13 04:13:53;;;;;;;9.10;5.47;;;9.40;99.90;;;8.71;100.00;102214.25;4457671;26;20357;-58
2024/04/13 04:15:54;;;;;;;8.30;5.50;;;9.40;99.90;;;8.69;100.00;102216.13;4461568;26;20472;-58
2024/04/13 04:17:55;;;;;;;8.00;5.43;;;9.30;99.90;;;8.68;100.00;102214.47;4457426;26;20015;-58
2024/04/13 04:19:56;;;;;;;8.25;5.45;;;9.30;99.90;;;8.67;100.00;102206.69;4457205;26;20005;-57
2024/04/13 04:21:56;;;;;;;10.40;5.22;;;9.30;99.90;;;8.66;100.00;102212.91;4457729;26;20032;-56
2024/04/13 04:23:57;;;;;;;7.00;5.20;;;9.30;99.90;;;8.65;100.00;102216.47;4457443;26;20016;-57
2024/04/13 04:25:59;;;;;;;7.35;4.70;;;9.30;99.90;;;8.61;100.00;102213.22;4457390;26;20531;-58
2024/04/13 04:27:59;;;;;;;8.57;5.53;;;9.30;99.90;;;8.56;100.00;102207.44;4457493;26;20000;-58
2024/04/13 04:30:00;;;;;;;7.05;4.80;;;9.20;99.90;;;8.53;100.00;102210.28;4457481;26;20084;-57
2024/04/13 04:32:01;;;;;;;7.05;4.70;;;9.20;99.90;;;8.50;100.00;102207.88;4457691;26;20474;-58
2024/04/13 04:34:02;;;;;;;13.15;6.07;;;9.10;99.90;;;8.50;100.00;102209.66;4456960;26;20028;-58
2024/04/13 04:36:03;;;;;;;13.13;6.45;;;9.10;99.90;;;8.49;100.00;102206.19;4457390;26;20015;-57
2024/04/13 04:38:04;;;;;;;7.82;5.18;;;9.10;99.90;;;8.49;100.00;102202.69;4457314;26;20031;-57
2024/04/13 04:40:09;;;;;;;11.15;5.45;;;9.10;99.90;;;8.48;100.00;102207.16;4457355;26;20000;-58
2024/04/13 04:42:10;;;;;;;8.43;5.13;;;9.10;99.90;;;8.48;100.00;102199.25;4457051;26;20335;-58
2024/04/13 04:44:11;;;;;;;10.52;5.30;;;9.10;99.90;;;8.48;100.00;102196.63;4469535;26;20028;-57
2024/04/13 04:46:12;;;;;;;8.23;4.95;;;9.10;99.90;;;8.47;100.00;102197.56;4457219;26;20000;-58
2024/04/13 04:48:12;;;;;;;10.25;5.43;;;9.10;99.90;;;8.44;100.00;102196.94;4457237;26;20044;-58
2024/04/13 04:50:13;;;;;;;8.85;5.15;;;9.10;99.90;;;8.42;100.00;102197.06;4456771;26;20019;-57
2024/04/13 04:52:17;;;;;;;8.45;4.82;;;9.10;99.90;;;8.41;100.00;102199.78;4457183;26;20012;-58
2024/04/13 04:54:19;;;;;;;8.87;4.53;;;9.10;99.90;;;8.37;100.00;102203.56;4460576;26;20000;-58
2024/04/13 04:56:20;;;;;;;6.65;4.65;;;9.00;99.90;;;8.33;100.00;102202.94;4459670;26;20061;-56
2024/04/13 04:58:21;;;;;;;10.65;5.65;;;9.00;99.90;;;8.31;100.00;102200.41;4464359;26;19999;-58
2024/04/13 05:00:22;;;;;;;7.40;4.18;;;9.00;99.90;;;8.31;100.00;102210.06;4486347;26;20412;-58
2024/04/13 05:02:24;;;;;;;7.57;4.65;;;9.00;99.90;;;8.26;100.00;102212.16;4486297;26;20011;-57
2024/04/13 05:04:26;;;;;;;7.85;4.50;;;8.90;99.90;;;8.20;100.00;102204.69;4476369;26;19999;-58
2024/04/13 05:06:27;;;;;;;7.28;4.07;;;8.90;99.90;;;8.15;100.00;102204.19;4456958;26;20011;-57
2024/04/13 05:08:29;;;;;;;6.35;4.43;;;8.80;99.90;;;8.12;100.00;102207.00;4460373;26;20005;-58
2024/04/13 05:10:30;;;;;;;7.65;4.07;;;8.80;99.90;;;8.10;100.00;102201.84;4467032;26;20047;-58
2024/04/13 05:12:30;;;;;;;6.95;4.38;;;8.80;99.90;;;8.05;100.00;102203.09;4456528;26;20044;-58
2024/04/13 05:14:32;;;;;;;7.82;4.28;;;8.80;99.90;;;8.02;100.00;102198.06;4456738;26;20074;-56
2024/04/13 05:16:34;;;;;;;6.55;4.32;;;8.70;99.90;;;8.00;100.00;102197.31;4456713;26;20074;-57
2024/04/13 05:18:36;;;;;;;7.07;4.75;;;8.70;99.90;;;7.99;100.00;102206.16;4456439;26;20000;-58
2024/04/13 05:20:37;;;;;;;9.40;4.95;;;8.70;99.90;;;7.99;100.00;102203.53;4458803;26;20000;-58
2024/04/13 05:22:38;;;;;;;6.18;4.45;;;8.60;99.90;;;8.00;100.00;102199.97;4459579;26;20019;-58
2024/04/13 05:24:39;;;;;;;8.23;5.07;;;8.60;99.90;;;7.99;100.00;102208.78;4459554;26;20011;-57
2024/04/13 05:26:41;;;;;;;9.13;5.28;;;8.60;99.90;;;7.98;100.00;102201.81;4459463;26;20032;-58
2024/04/13 05:28:42;;;;;;;8.00;4.72;;;8.60;99.90;;;7.97;100.00;102195.75;4459318;26;20011;-58
2024/04/13 05:30:55;;;;;;;6.53;4.63;;;8.60;99.90;;;7.99;100.00;102198.25;4470596;26;20031;-58
2024/04/13 05:32:56;;;;;;;9.20;4.40;;;8.60;99.90;;;8.01;100.00;102201.63;4486469;26;20003;-58
2024/04/13 05:34:57;;;;;;;9.80;4.75;;;8.60;99.90;;;7.96;100.00;102198.47;4458996;26;20464;-58
2024/04/13 05:36:57;;;;;;;8.73;4.63;;;8.70;99.90;;;7.94;100.00;102205.63;4459330;26;20440;-56
2024/04/13 05:38:58;;;;;;;7.10;4.85;;;8.60;99.90;;;7.93;100.00;102201.31;4459497;26;20016;-57
2024/04/13 05:41:00;;;;;;;10.60;4.90;;;8.60;99.90;;;7.95;100.00;102196.78;4459302;26;20004;-57
2024/04/13 05:43:00;;;;;;;12.48;4.93;;;8.60;99.90;;;7.96;100.00;102208.97;4462185;26;20012;-58
2024/04/13 05:45:03;;;;;;;10.00;4.80;;;8.60;99.90;;;7.96;100.00;102208.97;4464256;26;20010;-58
2024/04/13 05:47:04;;;;;;;9.80;4.40;;;8.60;99.90;;;7.96;100.00;102206.34;4459227;26;20016;-58
2024/04/13 05:49:05;;;;;;;6.93;4.38;;;8.60;99.90;;;7.99;100.00;102203.53;4458964;26;20004;-57
2024/04/13 05:51:07;;;;;;;6.35;4.10;;;8.60;99.90;;;8.00;100.00;102211.31;4459491;26;20098;-57
2024/04/13 05:53:08;;;;;;;8.15;4.22;;;8.60;99.90;;;8.02;100.00;102213.81;4463315;26;20004;-57
2024/04/13 05:55:08;;;;;;;6.60;4.50;;;8.70;99.90;;;8.02;100.00;102213.81;4469099;26;20019;-57
2024/04/13 05:57:11;;;;;;;6.88;4.47;;;8.70;99.90;;;8.02;100.00;102217.28;4459020;26;20036;-57
2024/04/13 05:59:12;;;;;;;6.90;4.25;;;8.70;99.90;;;8.04;100.00;102211.94;4478621;26;20011;-57
2024/04/13 06:01:12;;;;;;;8.93;4.65;;;8.70;99.90;;;8.07;100.00;102211.72;4488465;26;20072;-56
2024/04/13 06:03:14;;;;;;;8.05;4.65;;;8.70;99.90;;;8.13;100.00;102213.94;4482487;26;20360;-57
2024/04/13 06:05:15;;;;;;;7.75;4.10;;;8.70;99.90;;;8.15;100.00;102209.44;4459102;26;20004;-58
2024/04/13 06:07:17;;;;;;;5.53;4.30;;;8.70;99.90;;;8.20;100.00;102213.41;4459286;26;20032;-57
2024/04/13 06:09:18;;;;;;;7.05;4.30;;;8.80;99.90;;;8.27;100.00;102221.75;4458999;26;20011;-57
2024/04/13 06:11:19;;;;;;;8.63;4.88;;;8.80;99.90;;;8.31;100.00;102221.44;4458606;26;20000;-58
2024/04/13 06:13:20;;;;;;;5.00;3.83;;;8.90;99.90;;;8.36;100.00;102225.56;4465845;26;20011;-58
2024/04/13 06:15:20;;;;;;;5.18;3.58;;;8.90;99.90;;;8.41;100.00;102232.19;4468834;26;20020;-57
2024/04/13 06:17:21;;;;;;;5.95;3.90;;;9.00;99.90;;;8.43;100.00;102230.25;4459000;26;20004;-58
2024/04/13 06:19:22;;;;;;;6.07;4.40;;;9.00;99.90;;;8.45;100.00;102235.44;4458614;26;20329;-58
2024/04/13 06:21:23;;;;;;;5.65;4.07;;;9.00;99.90;;;8.46;100.00;102239.72;4459057;26;20000;-57
2024/04/13 06:23:24;;;;;;;6.85;4.03;;;9.00;99.90;;;8.47;100.00;102242.28;4466415;26;20097;-58
2024/04/13 06:25:25;;;;;;;6.65;4.47;;;9.00;99.90;;;8.50;100.00;102247.31;4463451;26;20005;-57
2024/04/13 06:27:26;;;;;;;7.38;4.32;;;9.10;99.90;;;8.54;100.00;102238.25;4459004;26;20015;-57
2024/04/13 06:29:26;;;;;;;6.43;4.05;;;9.10;99.90;;;8.64;100.00;102241.94;4458741;26;20008;-58
2024/04/13 06:31:27;;;;;;;5.97;4.00;;;9.10;99.90;;;8.74;100.00;102240.34;4458264;26;20016;-57
2024/04/13 06:33:29;;;;;;;7.07;3.90;;;9.20;99.90;;;8.86;100.00;102255.28;4466242;26;20000;-58
2024/04/13 06:35:30;;;;;;;5.75;3.60;;;9.40;99.90;;;8.95;100.00;102240.63;4458602;26;20006;-57
2024/04/13 06:37:31;;;;;;;4.47;3.38;;;9.40;99.90;;;9.00;100.00;102237.66;4458663;26;20154;-58
2024/04/13 06:39:31;;;;;;;4.05;3.10;;;9.50;99.90;;;9.05;100.00;102239.00;4458856;26;20004;-58
2024/04/13 06:41:33;;;;;;;5.20;3.33;;;9.50;99.90;;;9.04;100.00;102242.59;4458906;26;20016;-57
2024/04/13 06:43:33;;;;;;;4.72;3.28;;;9.60;99.90;;;9.06;100.00;102245.09;4465642;26;20003;-58
2024/04/13 06:45:37;;;;;;;4.57;3.30;;;9.60;99.90;;;9.07;100.00;102238.91;4487891;26;20078;-57
2024/04/13 06:47:38;;;;;;;5.23;3.60;;;9.60;99.90;;;9.08;100.00;102244.03;4488226;26;20448;-57
2024/04/13 06:49:38;;;;;;;5.05;2.95;;;9.70;99.90;;;9.12;100.00;102242.03;4487661;26;20036;-57
2024/04/13 06:51:39;;;;;;;4.15;2.70;;;9.60;99.90;;;9.18;100.00;102241.59;4487904;26;20015;-58
2024/04/13 06:53:40;;;;;;;3.15;2.80;;;9.70;99.90;;;9.22;100.00;102241.28;4476825;26;20011;-58
2024/04/13 06:55:41;;;;;;;3.63;2.67;;;9.80;99.90;;;9.30;100.00;102238.94;4464985;26;20372;-59
2024/04/13 06:57:42;;;;;;;2.90;2.33;;;9.90;99.90;;;9.37;100.00;102244.59;4458429;26;20058;-57
2024/04/13 06:59:44;;;;;;;5.65;3.13;;;9.90;99.90;;;9.45;100.00;102247.50;4485660;26;20073;-58
2024/04/13 07:01:45;;;;;;;3.75;2.92;;;10.00;99.90;;;9.56;100.00;102252.00;4482219;26;20352;-57
2024/04/13 07:03:46;;;;;;;5.05;3.40;;;10.10;99.90;;;9.62;100.00;102252.38;4479324;26;20012;-57
2024/04/13 07:06:00;;;;;;;4.35;3.55;;;10.20;99.90;;;9.72;100.00;102256.03;4479843;26;20076;-58
2024/04/13 07:08:01;;;;;;;5.10;3.55;;;10.20;99.90;;;9.78;100.00;102260.84;4487869;26;20008;-56
2024/04/13 07:10:03;;;;;;;4.45;3.20;;;10.30;99.90;;;9.85;100.00;102259.44;4487826;26;20039;-58
2024/04/13 07:12:04;;;;;;;4.85;3.60;;;10.40;99.90;;;9.95;100.00;102254.28;4487522;26;20011;-58
2024/04/13 07:14:05;;;;;;;4.75;2.90;;;10.50;99.90;;;10.05;100.00;102243.91;4471096;26;20000;-58
2024/04/13 07:16:06;;;;;;;4.75;3.70;;;10.60;99.90;;;10.14;100.00;102252.00;4478195;26;20335;-58
2024/04/13 07:18:08;;;;;;;6.50;3.92;;;10.70;99.90;;;10.26;100.00;102245.78;4458397;26;20014;-58
2024/04/13 07:20:09;;;;;;;4.88;3.83;;;10.80;99.90;;;10.38;100.00;102250.13;4458095;26;20004;-58
2024/04/13 07:22:10;;;;;;;5.13;3.65;;;10.90;99.90;;;10.51;100.00;102245.56;4458378;26;20001;-58
2024/04/13 07:24:11;;;;;;;4.50;3.53;;;11.00;99.90;;;10.64;100.00;102239.34;4469789;26;20032;-58
2024/04/13 07:26:11;;;;;;;3.55;3.08;;;11.10;99.90;;;10.78;100.00;102242.56;4474086;26;20015;-58
2024/04/13 07:28:12;;;;;;;3.80;2.90;;;11.30;99.90;;;10.89;100.00;102233.81;4483423;26;20023;-58
2024/04/13 07:30:13;;;;;;;4.30;2.95;;;11.40;99.90;;;11.01;100.00;102238.97;4487753;26;20062;-58
2024/04/13 07:32:14;;;;;;;4.40;3.22;;;11.50;99.90;;;11.12;100.00;102240.75;4487533;26;20011;-57
2024/04/13 07:34:15;;;;;;;4.13;3.40;;;11.60;99.90;;;11.22;100.00;102235.56;4468792;26;20321;-58
2024/04/13 07:36:17;;;;;;;4.78;3.30;;;11.80;99.90;;;11.34;100.00;102245.13;4458150;26;20000;-58
2024/04/13 07:38:18;;;;;;;4.25;3.35;;;11.90;99.90;;;11.47;100.00;102244.00;4457986;26;20378;-58
2024/04/13 07:40:18;;;;;;;4.00;3.15;;;12.00;99.90;;;11.59;100.00;102250.09;4457973;26;20024;-58
2024/04/13 07:42:19;;;;;;;4.10;3.55;;;12.10;99.90;;;11.68;100.00;102245.88;4457882;26;20095;-58
2024/04/13 07:44:20;;;;;;;4.93;3.80;;;12.20;99.90;;;11.82;100.00;102245.59;4459364;26;20043;-58
2024/04/13 07:46:21;;;;;;;4.78;3.58;;;12.30;99.90;;;11.95;100.00;102244.44;4457857;26;20024;-58
2024/04/13 07:48:22;;;;;;;6.38;3.35;;;12.40;99.90;;;12.07;100.00;102246.06;4457807;26;20000;-58
2024/04/13 07:50:23;;;;;;;4.00;3.20;;;12.60;99.90;;;12.19;100.00;102252.09;4457659;26;20004;-58
2024/04/13 07:52:24;;;;;;;4.40;3.00;;;12.70;99.90;;;12.28;100.00;102248.69;4458133;26;20043;-58
2024/04/13 07:54:25;;;;;;;4.63;3.33;;;12.70;99.90;;;12.37;100.00;102255.00;4472248;26;20012;-58
2024/04/13 07:56:26;;;;;;;4.90;3.45;;;12.80;99.90;;;12.46;100.00;102246.28;4484577;26;20003;-59
2024/04/13 07:58:27;;;;;;;5.93;3.97;;;12.90;99.90;;;12.55;100.00;102233.09;4478823;26;20472;-58
2024/04/13 08:00:27;;;;;;;3.58;3.08;;;13.00;99.90;;;12.66;100.00;102233.00;4457977;26;20436;-58
2024/04/13 08:02:28;;;;;;;13.98;7.68;;;13.10;99.90;;;12.75;100.00;102234.03;4457846;26;20047;-59
2024/04/13 08:04:29;;;;;;;44.35;16.80;;;13.20;99.90;;;12.80;100.00;102229.16;4461201;26;20028;-58
2024/04/13 08:06:30;;;;;;;141.00;42.50;;;13.30;99.90;;;12.90;100.00;102238.00;4487147;26;20073;-58
2024/04/13 08:08:31;;;;;;;122.30;38.05;;;13.40;99.90;;;12.96;100.00;102240.06;4487106;26;20440;-58
2024/04/13 08:10:36;;;;;;;80.55;27.05;;;13.50;99.90;;;13.01;100.00;102237.03;4487238;26;20008;-58
2024/04/13 08:12:37;;;;;;;38.22;15.40;;;13.50;99.90;;;13.09;100.00;102239.88;4485216;26;20011;-58
2024/04/13 08:14:38;;;;;;;21.40;9.82;;;13.60;99.90;;;13.16;100.00;102246.31;4464258;26;20447;-59
2024/04/13 08:16:39;;;;;;;13.18;7.70;;;13.70;99.90;;;13.22;100.00;102238.66;4457607;26;20028;-59
2024/04/13 08:18:40;;;;;;;9.15;6.65;;;13.80;99.90;;;13.35;100.00;102245.50;4457206;26;20004;-58
2024/04/13 08:20:41;;;;;;;9.80;6.60;;;13.90;99.90;;;13.43;100.00;102243.84;4457540;26;20000;-59
2024/04/13 08:22:42;;;;;;;13.48;8.43;;;14.00;99.90;;;13.53;100.00;102246.50;4457436;26;20044;-59
2024/04/13 08:24:44;;;;;;;11.00;8.05;;;14.00;99.90;;;13.63;100.00;102242.88;4468515;26;20012;-59